createdAt,value
2022-12-05T00:01:13.630Z,47.97
2022-12-05T00:03:41.587Z,48.09
2022-12-05T00:06:09.615Z,48.00
2022-12-05T00:08:37.532Z,47.95
2022-12-05T00:11:05.516Z,47.75
2022-12-05T00:13:33.404Z,47.81
2022-12-05T00:16:02.695Z,47.91
2022-12-05T00:18:30.643Z,47.79
2022-12-05T00:20:58.534Z,47.98
2022-12-05T00:23:26.421Z,48.03
2022-12-05T00:25:54.361Z,48.00
2022-12-05T00:28:22.277Z,48.05
2022-12-05T00:30:50.219Z,47.86
2022-12-05T00:33:19.492Z,47.70
2022-12-05T00:35:47.420Z,47.81
2022-12-05T00:38:15.316Z,47.77
2022-12-05T00:40:43.184Z,47.87
2022-12-05T00:43:11.108Z,47.63
2022-12-05T00:45:39.077Z,47.69
2022-12-05T00:48:07.268Z,47.54
2022-12-05T00:50:36.585Z,47.45
2022-12-05T00:53:04.485Z,47.50
2022-12-05T00:55:32.371Z,47.63
2022-12-05T00:58:00.258Z,47.44
2022-12-05T01:00:28.182Z,47.60
2022-12-05T01:02:56.797Z,47.39
2022-12-05T01:05:24.750Z,47.38
2022-12-05T01:07:54.304Z,47.58
2022-12-05T01:10:22.252Z,47.66
2022-12-05T01:12:50.280Z,47.92
2022-12-05T01:15:18.264Z,47.65
2022-12-05T01:17:46.181Z,47.67
2022-12-05T01:20:14.125Z,47.55
2022-12-05T01:22:42.066Z,47.69
2022-12-05T01:25:11.596Z,47.74
2022-12-05T01:27:39.460Z,47.86
2022-12-05T01:30:08.673Z,47.94
2022-12-05T01:32:36.579Z,47.86
2022-12-05T01:35:04.671Z,47.87
2022-12-05T01:37:32.622Z,47.78
2022-12-05T01:40:00.714Z,47.97
2022-12-05T01:42:29.993Z,47.93
2022-12-05T01:45:07.691Z,47.87
2022-12-05T01:47:36.593Z,47.85
2022-12-05T01:50:04.966Z,47.87
2022-12-05T01:52:32.915Z,47.78
2022-12-05T01:55:04.756Z,47.67
2022-12-05T01:57:34.053Z,47.66
2022-12-05T02:00:04.138Z,47.73
2022-12-05T02:02:32.080Z,47.77
2022-12-05T02:05:03.042Z,47.60
2022-12-05T02:07:31.221Z,47.75
2022-12-05T02:09:59.362Z,47.87
2022-12-05T02:12:27.497Z,47.67
2022-12-05T02:15:04.871Z,47.75
2022-12-05T02:17:37.242Z,47.71
2022-12-05T02:20:11.223Z,47.70
2022-12-05T02:22:52.055Z,47.93
2022-12-05T02:25:41.575Z,47.83
2022-12-05T02:28:23.272Z,47.88
2022-12-05T02:30:54.198Z,47.90
2022-12-05T02:33:23.337Z,47.86
2022-12-05T02:35:53.803Z,48.12
2022-12-05T02:38:27.101Z,48.03
2022-12-05T02:41:01.045Z,48.04
2022-12-05T02:43:31.936Z,48.05
2022-12-05T02:46:02.359Z,47.86
2022-12-05T02:48:30.355Z,47.97
2022-12-05T02:50:58.669Z,48.07
2022-12-05T02:53:26.740Z,48.01
2022-12-05T02:55:54.642Z,48.08
2022-12-05T02:58:24.849Z,47.94
2022-12-05T03:00:55.333Z,48.08
2022-12-05T03:03:24.646Z,48.06
2022-12-05T03:05:55.549Z,48.10
2022-12-05T03:08:24.617Z,48.15
2022-12-05T03:10:52.871Z,48.30
2022-12-05T03:13:22.243Z,48.37
2022-12-05T03:15:50.656Z,48.36
2022-12-05T03:18:20.014Z,48.75
2022-12-05T03:20:49.783Z,48.77
2022-12-05T03:23:19.530Z,49.02
2022-12-05T03:25:50.753Z,48.84
2022-12-05T03:28:20.279Z,48.91
2022-12-05T03:30:48.267Z,48.93
2022-12-05T03:33:16.706Z,48.86
2022-12-05T03:35:45.831Z,48.94
2022-12-05T03:38:16.253Z,48.91
2022-12-05T03:40:45.833Z,48.77
2022-12-05T03:43:17.208Z,48.75
2022-12-05T03:45:46.194Z,48.78
2022-12-05T03:48:16.244Z,48.75
2022-12-05T03:50:45.451Z,48.70
2022-12-05T03:53:20.916Z,48.66
2022-12-05T03:55:54.467Z,48.64
2022-12-05T03:58:24.291Z,48.52
2022-12-05T04:00:52.339Z,48.54
2022-12-05T04:03:22.144Z,48.50
2022-12-05T04:05:51.198Z,48.68
2022-12-05T04:08:21.394Z,48.72
2022-12-05T04:10:50.649Z,48.68
2022-12-05T04:13:20.029Z,48.67
2022-12-05T04:16:08.448Z,48.84
2022-12-05T04:18:37.807Z,48.73
2022-12-05T04:21:23.176Z,48.85
2022-12-05T04:24:13.757Z,48.74
2022-12-05T04:26:43.406Z,48.96
2022-12-05T04:29:13.162Z,48.73
2022-12-05T04:31:42.695Z,48.84
2022-12-05T04:34:12.170Z,48.92
2022-12-05T04:36:41.175Z,48.87
2022-12-05T04:39:17.763Z,48.83
2022-12-05T04:41:48.238Z,49.14
2022-12-05T04:44:18.897Z,49.10
2022-12-05T04:46:46.858Z,49.16
2022-12-05T04:49:17.173Z,49.08
2022-12-05T04:51:45.118Z,49.13
2022-12-05T04:54:16.127Z,49.11
2022-12-05T04:56:44.322Z,49.22
2022-12-05T04:59:12.246Z,49.26
2022-12-05T05:01:41.227Z,49.44
2022-12-05T05:04:10.636Z,49.38
2022-12-05T05:06:38.719Z,49.29
2022-12-05T05:09:06.628Z,49.42
2022-12-05T05:11:36.176Z,49.45
2022-12-05T05:14:04.314Z,49.53
2022-12-05T05:16:33.556Z,49.45
2022-12-05T05:19:01.459Z,49.46
2022-12-05T05:21:30.110Z,49.71
2022-12-05T05:23:58.350Z,49.51
2022-12-05T05:26:26.449Z,49.46
2022-12-05T05:28:55.797Z,49.70
2022-12-05T05:31:23.773Z,49.58
2022-12-05T05:33:51.919Z,49.64
2022-12-05T05:36:20.035Z,49.58
2022-12-05T05:38:49.263Z,49.65
2022-12-05T05:41:18.251Z,49.68
2022-12-05T05:43:46.481Z,49.88
2022-12-05T05:46:15.949Z,49.81
2022-12-05T05:48:43.904Z,49.93
2022-12-05T05:51:14.970Z,49.86
2022-12-05T05:53:42.912Z,49.67
2022-12-05T05:56:15.953Z,49.81
2022-12-05T05:58:48.123Z,49.81
2022-12-05T06:01:18.895Z,49.85
2022-12-05T06:03:46.943Z,50.03
2022-12-05T06:06:15.583Z,49.97
2022-12-05T06:08:44.185Z,49.96
2022-12-05T06:11:13.429Z,49.94
2022-12-05T06:13:41.389Z,49.73
2022-12-05T06:16:10.580Z,49.79
2022-12-05T06:18:39.891Z,49.75
2022-12-05T06:21:11.805Z,49.73
2022-12-05T06:23:43.977Z,49.74
2022-12-05T06:26:12.234Z,49.83
2022-12-05T06:28:40.547Z,49.84
2022-12-05T06:31:09.867Z,49.71
2022-12-05T06:33:39.263Z,49.73
2022-12-05T06:36:08.117Z,49.67
2022-12-05T06:38:40.539Z,49.64
2022-12-05T06:41:10.977Z,49.74
2022-12-05T06:43:38.927Z,49.74
2022-12-05T06:46:07.262Z,49.87
2022-12-05T06:48:35.284Z,49.98
2022-12-05T06:51:07.015Z,49.85
2022-12-05T06:53:34.911Z,49.87
2022-12-05T06:56:03.587Z,49.90
2022-12-05T06:58:31.587Z,50.00
2022-12-05T07:01:16.843Z,49.97
2022-12-05T07:03:45.146Z,50.04
2022-12-05T07:06:14.459Z,50.06
2022-12-05T07:08:42.586Z,50.06
2022-12-05T07:11:10.553Z,50.10
2022-12-05T07:13:38.490Z,50.05
2022-12-05T07:16:08.538Z,50.00
2022-12-05T07:18:36.558Z,50.19
2022-12-05T07:21:13.610Z,50.17
2022-12-05T07:23:43.694Z,50.09
2022-12-05T07:26:12.986Z,50.23
2022-12-05T07:28:40.946Z,50.10
2022-12-05T07:31:09.970Z,50.30
2022-12-05T07:33:37.996Z,50.29
2022-12-05T07:36:07.173Z,50.31
2022-12-05T07:38:35.211Z,50.22
2022-12-05T07:41:12.731Z,50.30
2022-12-05T07:43:41.799Z,50.33
2022-12-05T07:46:11.443Z,50.36
2022-12-05T07:48:39.663Z,50.44
2022-12-05T07:51:08.309Z,50.58
2022-12-05T07:53:36.344Z,50.47
2022-12-05T07:56:04.923Z,50.11
2022-12-05T07:58:36.014Z,50.42
2022-12-05T08:01:07.631Z,50.40
2022-12-05T08:03:35.578Z,50.44
2022-12-05T08:06:04.528Z,50.29
2022-12-05T08:08:33.016Z,50.39
2022-12-05T08:11:04.514Z,50.28
2022-12-05T08:13:32.583Z,50.33
2022-12-05T08:16:03.881Z,50.56
2022-12-05T08:18:31.860Z,50.42
2022-12-05T08:21:03.050Z,50.33
2022-12-05T08:23:31.896Z,50.41
2022-12-05T08:26:03.131Z,50.43
2022-12-05T08:28:31.137Z,50.48
2022-12-05T08:31:06.066Z,50.54
2022-12-05T08:33:34.091Z,50.39
2022-12-05T08:36:03.384Z,50.49
2022-12-05T08:38:31.442Z,50.47
2022-12-05T08:41:01.838Z,50.41
2022-12-05T08:43:30.017Z,50.36
2022-12-05T08:45:58.043Z,50.31
2022-12-05T08:48:29.399Z,50.43
2022-12-05T08:50:57.804Z,50.26
2022-12-05T08:53:25.730Z,50.37
2022-12-05T08:55:53.689Z,50.19
2022-12-05T08:58:21.704Z,50.26
2022-12-05T09:00:49.609Z,50.36
2022-12-05T09:03:17.558Z,50.26
2022-12-05T09:05:46.860Z,50.31
2022-12-05T09:08:14.863Z,50.24
2022-12-05T09:10:42.887Z,50.27
2022-12-05T09:13:10.875Z,50.24
2022-12-05T09:15:39.895Z,50.34
2022-12-05T09:18:07.917Z,50.31
2022-12-05T09:20:35.857Z,50.36
2022-12-05T09:23:05.203Z,50.23
2022-12-05T09:25:33.930Z,50.15
2022-12-05T09:28:01.901Z,50.23
2022-12-05T09:30:29.809Z,50.24
2022-12-05T09:32:57.746Z,50.30
2022-12-05T09:35:25.660Z,50.19
2022-12-05T09:37:57.080Z,50.22
2022-12-05T09:40:26.426Z,50.27
2022-12-05T09:43:00.079Z,50.38
2022-12-05T09:45:30.221Z,50.18
2022-12-05T09:48:00.648Z,50.21
2022-12-05T09:50:29.336Z,50.25
2022-12-05T09:53:05.842Z,50.22
2022-12-05T09:55:41.492Z,50.32
2022-12-05T09:58:18.014Z,50.11
2022-12-05T10:00:45.947Z,50.30
2022-12-05T10:03:20.182Z,50.19
2022-12-05T10:05:49.515Z,50.40
2022-12-05T10:08:20.855Z,50.41
2022-12-05T10:10:57.313Z,50.28
2022-12-05T10:13:46.888Z,50.27
2022-12-05T10:18:46.208Z,50.35
2022-12-05T10:21:17.214Z,50.28
2022-12-05T10:23:58.355Z,50.39
2022-12-05T10:26:30.004Z,50.27
2022-12-05T10:29:00.340Z,50.35
2022-12-05T10:31:29.405Z,50.41
2022-12-05T10:34:00.524Z,50.38
2022-12-05T10:36:29.702Z,50.21
2022-12-05T10:38:58.025Z,50.38
2022-12-05T10:41:28.688Z,50.50
2022-12-05T10:43:56.621Z,50.52
2022-12-05T10:46:24.587Z,50.51
2022-12-05T10:48:52.526Z,50.40
2022-12-05T10:51:24.770Z,50.51
2022-12-05T10:53:52.854Z,50.74
2022-12-05T10:56:42.383Z,50.69
2022-12-05T10:59:11.296Z,50.50
2022-12-05T11:01:39.781Z,50.61
2022-12-05T11:04:13.886Z,50.67
2022-12-05T11:06:41.975Z,50.56
2022-12-05T11:09:15.555Z,50.50
2022-12-05T11:11:44.859Z,50.48
2022-12-05T11:14:23.372Z,50.54
2022-12-05T11:16:54.248Z,50.40
2022-12-05T11:19:27.450Z,50.57
2022-12-05T11:21:56.062Z,50.55
2022-12-05T11:24:31.373Z,50.61
2022-12-05T11:27:01.324Z,50.66
2022-12-05T11:29:30.642Z,50.55
2022-12-05T11:31:58.660Z,50.46
2022-12-05T11:34:27.913Z,50.48
2022-12-05T11:36:57.433Z,50.55
2022-12-05T11:39:25.452Z,50.66
2022-12-05T11:42:14.677Z,50.63
2022-12-05T11:45:01.484Z,50.47
2022-12-05T11:47:39.845Z,50.57
2022-12-05T11:50:18.270Z,50.48
2022-12-05T11:52:53.426Z,50.43
2022-12-05T11:55:22.885Z,50.57
2022-12-05T11:58:03.239Z,50.54
2022-12-05T12:00:33.920Z,50.49
2022-12-05T12:03:33.382Z,50.42
2022-12-05T12:06:25.358Z,50.56
2022-12-05T12:09:17.310Z,50.38
2022-12-05T12:11:48.023Z,50.42
2022-12-05T12:14:20.896Z,50.48
2022-12-05T12:16:54.267Z,50.45
2022-12-05T12:19:40.653Z,50.43
2022-12-05T12:22:17.051Z,50.63
2022-12-05T12:24:57.821Z,50.40
2022-12-05T12:27:32.951Z,50.58
2022-12-05T12:30:04.822Z,50.37
2022-12-05T12:32:36.290Z,50.41
2022-12-05T12:35:21.155Z,50.58
2022-12-05T12:37:53.062Z,50.49
2022-12-05T12:40:23.220Z,50.53
2022-12-05T12:42:57.681Z,50.49
2022-12-05T12:45:52.734Z,50.63
2022-12-05T12:48:32.911Z,50.62
2022-12-05T12:51:01.273Z,50.52
2022-12-05T12:53:53.797Z,50.50
2022-12-05T12:56:28.011Z,50.14
2022-12-05T12:58:59.102Z,49.95
2022-12-05T13:01:33.094Z,49.97
2022-12-05T13:04:04.413Z,49.90
2022-12-05T13:06:35.061Z,49.97
2022-12-05T13:09:04.537Z,49.65
2022-12-05T13:11:36.504Z,49.65
2022-12-05T13:14:04.463Z,49.67
2022-12-05T13:16:37.118Z,49.56
2022-12-05T13:19:06.953Z,49.51
2022-12-05T13:21:34.946Z,49.40
2022-12-05T13:24:03.767Z,49.40
2022-12-05T13:26:32.007Z,49.18
2022-12-05T13:29:00.861Z,49.07
2022-12-05T13:31:41.361Z,49.29
2022-12-05T13:34:35.241Z,49.38
2022-12-05T13:37:29.624Z,49.28
2022-12-05T13:40:18.391Z,48.51
2022-12-05T13:42:48.064Z,48.11
2022-12-05T13:45:17.751Z,47.40
2022-12-05T13:47:52.880Z,47.40
2022-12-05T13:50:22.970Z,47.46
2022-12-05T13:52:54.091Z,47.27
2022-12-05T13:55:29.527Z,47.02
2022-12-05T13:58:00.537Z,47.29
2022-12-05T14:00:34.131Z,47.20
2022-12-05T14:03:08.458Z,46.80
2022-12-05T14:05:44.532Z,46.88
2022-12-05T14:08:48.029Z,47.29
2022-12-05T14:11:16.063Z,47.51
2022-12-05T14:13:45.035Z,47.72
2022-12-05T14:16:44.369Z,48.64
2022-12-05T14:19:34.433Z,49.04
2022-12-05T14:22:08.383Z,49.89
2022-12-05T14:24:38.367Z,47.46
2022-12-05T14:27:08.662Z,46.52
2022-12-05T14:29:41.069Z,45.78
2022-12-05T14:32:20.109Z,45.62
2022-12-05T14:34:55.198Z,45.94
2022-12-05T14:37:27.483Z,46.53
2022-12-05T14:39:56.121Z,46.73
2022-12-05T14:42:27.409Z,46.95
2022-12-05T14:44:56.448Z,46.97
2022-12-05T14:47:25.219Z,47.67
2022-12-05T14:50:02.568Z,47.61
2022-12-05T14:52:31.833Z,48.14
2022-12-05T14:55:02.738Z,48.28
2022-12-05T14:57:30.627Z,48.60
2022-12-05T14:59:59.984Z,48.69
2022-12-05T15:02:29.171Z,49.06
2022-12-05T15:05:00.805Z,49.02
2022-12-05T15:07:35.307Z,49.02
2022-12-05T15:10:05.104Z,49.17
2022-12-05T15:12:36.973Z,48.98
2022-12-05T15:15:08.832Z,49.00
2022-12-05T15:17:42.902Z,49.08
2022-12-05T15:20:17.364Z,48.92
2022-12-05T15:22:45.279Z,49.12
2022-12-05T15:25:21.552Z,49.18
2022-12-05T15:27:54.846Z,49.41
2022-12-05T15:30:22.799Z,49.82
2022-12-05T15:32:53.779Z,49.73
2022-12-05T15:35:27.500Z,49.82
2022-12-05T15:37:57.150Z,49.83
2022-12-05T15:40:26.251Z,49.84
2022-12-05T15:42:54.786Z,49.95
2022-12-05T15:45:24.429Z,49.95
2022-12-05T15:47:54.160Z,49.94
2022-12-05T15:50:25.446Z,49.93
2022-12-05T15:52:56.471Z,50.20
2022-12-05T15:55:27.699Z,50.42
2022-12-05T15:57:57.038Z,50.39
2022-12-05T16:00:26.181Z,50.50
2022-12-05T16:02:55.582Z,50.64
2022-12-05T16:05:25.279Z,50.67
2022-12-05T16:07:54.912Z,50.66
2022-12-05T16:10:29.116Z,50.57
2022-12-05T16:12:57.646Z,50.77
2022-12-05T16:15:26.277Z,50.72
2022-12-05T16:17:55.266Z,50.89
2022-12-05T16:20:25.950Z,50.91
2022-12-05T16:22:56.245Z,51.11
2022-12-05T16:25:25.543Z,51.32
2022-12-05T16:28:04.756Z,51.15
2022-12-05T16:30:32.697Z,51.23
2022-12-05T16:33:03.384Z,51.05
2022-12-05T16:35:38.815Z,51.14
2022-12-05T16:38:15.700Z,51.27
2022-12-05T16:40:52.293Z,51.15
2022-12-05T16:43:22.239Z,51.41
2022-12-05T16:45:50.294Z,51.14
2022-12-05T16:48:25.106Z,51.18
2022-12-05T16:50:53.809Z,50.98
2022-12-05T16:53:30.422Z,50.93
2022-12-05T16:55:59.011Z,50.89
2022-12-05T16:58:27.675Z,50.99
2022-12-05T17:01:00.779Z,50.77
2022-12-05T17:03:36.283Z,50.79
2022-12-05T17:06:04.585Z,50.83
2022-12-05T17:08:33.924Z,50.75
2022-12-05T17:11:03.774Z,50.78
2022-12-05T17:13:32.024Z,50.81
2022-12-05T17:16:00.038Z,50.72
2022-12-05T17:18:31.512Z,50.82
2022-12-05T17:21:01.044Z,51.11
2022-12-05T17:23:28.955Z,51.26
2022-12-05T17:25:58.864Z,51.20
2022-12-05T17:28:26.864Z,51.30
2022-12-05T17:30:54.758Z,51.15
2022-12-05T17:33:22.682Z,51.24
2022-12-05T17:35:52.046Z,51.26
2022-12-05T17:38:19.960Z,51.15
2022-12-05T17:40:48.032Z,51.21
2022-12-05T17:43:23.048Z,51.26
2022-12-05T17:45:54.599Z,51.38
2022-12-05T17:48:22.608Z,51.37
2022-12-05T17:50:50.588Z,51.36
2022-12-05T17:53:19.440Z,51.45
2022-12-05T17:55:48.765Z,51.53
2022-12-05T17:58:18.382Z,51.41
2022-12-05T18:00:46.751Z,51.52
2022-12-05T18:03:16.230Z,51.74
2022-12-05T18:05:44.678Z,51.36
2022-12-05T18:08:12.764Z,51.53
2022-12-05T18:10:42.104Z,51.43
2022-12-05T18:13:10.032Z,51.44
2022-12-05T18:15:42.712Z,51.34
2022-12-05T18:18:12.813Z,51.45
2022-12-05T18:20:40.718Z,51.35
2022-12-05T18:23:08.734Z,51.40
2022-12-05T18:25:36.697Z,51.31
2022-12-05T18:28:04.760Z,51.38
2022-12-05T18:30:33.476Z,51.26
2022-12-05T18:33:02.785Z,51.31
2022-12-05T18:35:42.681Z,51.23
2022-12-05T18:38:11.114Z,51.38
2022-12-05T18:40:39.088Z,51.31
2022-12-05T18:43:07.167Z,51.25
2022-12-05T18:45:35.151Z,51.38
2022-12-05T18:48:23.351Z,51.31
2022-12-05T18:50:52.888Z,51.50
2022-12-05T18:53:21.107Z,51.40
2022-12-05T18:56:13.506Z,51.60
2022-12-05T18:58:37.077Z,51.50
2022-12-05T19:01:07.199Z,51.53
2022-12-05T19:03:36.711Z,51.49
2022-12-05T19:06:12.335Z,51.53
2022-12-05T19:08:40.236Z,51.63
2022-12-05T19:11:08.237Z,51.58
2022-12-05T19:13:36.461Z,51.59
2022-12-05T19:16:04.498Z,51.47
2022-12-05T19:18:32.528Z,51.53
2022-12-05T19:21:01.859Z,51.55
2022-12-05T19:23:29.976Z,51.52
2022-12-05T19:26:00.726Z,51.45
2022-12-05T19:28:29.129Z,51.30
2022-12-05T19:31:00.870Z,51.41
2022-12-05T19:33:35.590Z,51.59
2022-12-05T19:36:06.169Z,51.51
2022-12-05T19:38:35.015Z,51.36
2022-12-05T19:41:03.096Z,51.40
2022-12-05T19:43:31.257Z,51.46
2022-12-05T19:45:59.359Z,51.38
2022-12-05T19:48:27.669Z,51.50
2022-12-05T19:50:56.600Z,51.58
2022-12-05T19:53:26.232Z,51.58
2022-12-05T19:55:54.121Z,51.47
2022-12-05T19:58:22.167Z,51.34
2022-12-05T20:00:52.518Z,51.56
2022-12-05T20:03:20.719Z,51.50
2022-12-05T20:05:57.601Z,51.45
2022-12-05T20:08:26.963Z,51.31
2022-12-05T20:10:55.277Z,51.48
2022-12-05T20:13:45.756Z,51.38
2022-12-05T20:16:12.676Z,51.28
2022-12-05T20:18:41.231Z,51.35
2022-12-05T20:21:09.955Z,51.26
2022-12-05T20:23:39.510Z,51.11
2022-12-05T20:26:09.469Z,51.25
2022-12-05T20:28:37.540Z,51.39
2022-12-05T20:31:07.034Z,51.29
2022-12-05T20:33:35.218Z,51.31
2022-12-05T20:36:04.483Z,51.41
2022-12-05T20:38:32.626Z,51.34
2022-12-05T20:41:02.205Z,51.32
2022-12-05T20:43:30.135Z,51.46
2022-12-05T20:45:58.140Z,51.38
2022-12-05T20:48:26.997Z,51.45
2022-12-05T20:50:55.379Z,51.58
2022-12-05T20:53:23.353Z,51.50
2022-12-05T20:55:51.560Z,51.54
2022-12-05T20:58:21.742Z,51.43
2022-12-05T21:00:49.866Z,51.43
2022-12-05T21:03:17.777Z,51.86
2022-12-05T21:05:45.792Z,51.85
2022-12-05T21:08:14.095Z,51.73
2022-12-05T21:10:45.299Z,51.90
2022-12-05T21:13:13.243Z,51.86
2022-12-05T21:15:42.648Z,52.11
2022-12-05T21:18:10.605Z,52.02
2022-12-05T21:20:42.101Z,51.91
2022-12-05T21:23:10.355Z,51.95
2022-12-05T21:25:38.301Z,51.86
2022-12-05T21:28:06.294Z,51.92
2022-12-05T21:30:35.450Z,51.99
2022-12-05T21:33:05.600Z,51.85
2022-12-05T21:35:33.578Z,52.07
2022-12-05T21:38:01.619Z,52.23
2022-12-05T21:40:29.827Z,52.02
2022-12-05T21:42:57.769Z,52.18
2022-12-05T21:45:25.827Z,52.10
2022-12-05T21:47:53.879Z,52.04
2022-12-05T21:50:23.244Z,52.28
2022-12-05T21:52:51.183Z,52.14
2022-12-05T21:55:19.091Z,52.35
2022-12-05T21:57:47.251Z,52.29
2022-12-05T22:00:15.786Z,52.32
2022-12-05T22:02:43.748Z,52.34
2022-12-05T22:05:11.702Z,52.32
2022-12-05T22:07:41.008Z,52.30
2022-12-05T22:10:09.457Z,52.49
2022-12-05T22:12:37.487Z,52.44
2022-12-05T22:15:06.203Z,52.49
2022-12-05T22:17:34.167Z,52.59
2022-12-05T22:20:02.372Z,52.61
2022-12-05T22:22:30.489Z,52.65
2022-12-05T22:25:00.249Z,52.83
2022-12-05T22:27:28.358Z,52.75
2022-12-05T22:29:56.337Z,52.96
2022-12-05T22:32:24.304Z,52.88
2022-12-05T22:34:52.220Z,52.86
2022-12-05T22:37:20.134Z,53.18
2022-12-05T22:39:48.067Z,53.02
2022-12-05T22:42:17.333Z,53.16
2022-12-05T22:44:45.269Z,53.44
2022-12-05T22:47:13.166Z,53.48
2022-12-05T22:49:41.100Z,53.53
2022-12-05T22:52:09.003Z,53.50
2022-12-05T22:54:36.937Z,53.50
2022-12-05T22:57:04.936Z,53.70
2022-12-05T22:59:34.318Z,54.08
2022-12-05T23:02:02.317Z,54.12
2022-12-05T23:04:30.373Z,54.19
2022-12-05T23:06:58.371Z,54.21
2022-12-05T23:09:27.096Z,54.13
2022-12-05T23:11:54.988Z,54.48
2022-12-05T23:14:22.943Z,54.25
2022-12-05T23:16:52.242Z,54.27
2022-12-05T23:19:20.137Z,54.24
2022-12-05T23:21:48.045Z,54.16
2022-12-05T23:24:15.952Z,54.26
2022-12-05T23:26:44.962Z,54.20
2022-12-05T23:29:13.190Z,54.31
2022-12-05T23:31:41.240Z,54.28
2022-12-05T23:34:11.037Z,54.24
2022-12-05T23:36:38.938Z,54.32
2022-12-05T23:39:07.110Z,54.42
2022-12-05T23:41:35.044Z,54.33
2022-12-05T23:44:02.969Z,54.35
2022-12-05T23:46:30.940Z,54.40
2022-12-05T23:48:58.884Z,54.46
2022-12-05T23:51:28.968Z,54.33
2022-12-05T23:53:57.636Z,54.40
2022-12-05T23:56:26.455Z,54.34
2022-12-05T23:58:54.612Z,54.47
